Alden, Kansas
Current Conditions -  °F | °C
As of 4:52 PM on Thursday 20 Nov 2014 (Local Time) from KHUT Reporting Station
Clear Clear  
Wind Chill: 40°   Ceiling: Unl
Heat Index: 43°   Visibility: 10mi
Dew Point: 24°   Wind: 5mph
Humidity: 47%   Direction: 90°E
Pressure: 30.08"   Gusts: NA
Location:  38.24°N, 98.31°W
Report Text: KHUT 202252Z 09004KT 10SM CLR 06/M04 A3008 RMK AO2 SLP191 T00611044
Loading
Personal Weather Stations






























Interactive Weather Map New forecast layout! Learn more

10-Day Weather Forecast

Advertisements
Track Severe Weather on mobile